createdAt,value
2018-07-28T00:01:52.859Z,22.90
2018-07-28T00:04:21.514Z,22.90
2018-07-28T00:06:50.218Z,22.80
2018-07-28T00:09:18.862Z,22.70
2018-07-28T00:11:47.510Z,22.60
2018-07-28T00:14:16.190Z,22.50
2018-07-28T00:16:44.824Z,22.30
2018-07-28T00:19:16.422Z,22.20
2018-07-28T00:21:45.045Z,22.10
2018-07-28T00:26:42.037Z,21.90
2018-07-28T00:29:10.872Z,21.80
2018-07-28T00:31:39.545Z,21.70
2018-07-28T00:34:08.188Z,21.70
2018-07-28T00:36:36.909Z,21.60
2018-07-28T00:39:09.743Z,21.50
2018-07-28T00:41:38.377Z,21.40
2018-07-28T00:44:07.084Z,21.30
2018-07-28T00:46:35.787Z,21.30
2018-07-28T00:49:04.582Z,21.10
2018-07-28T00:51:33.309Z,21.00
2018-07-28T00:54:04.932Z,20.90
2018-07-28T00:56:33.944Z,20.70
2018-07-28T00:59:02.632Z,20.60
2018-07-28T01:01:31.322Z,20.50
2018-07-28T01:03:59.963Z,20.40
2018-07-28T01:06:28.671Z,20.30
2018-07-28T01:08:57.357Z,20.20
2018-07-28T01:11:26.033Z,20.10
2018-07-28T01:13:54.838Z,20.00
2018-07-28T01:16:23.519Z,19.80
2018-07-28T01:18:52.196Z,19.70
2018-07-28T01:21:20.867Z,19.60
2018-07-28T01:23:49.569Z,19.50
2018-07-28T01:26:18.271Z,19.40
2018-07-28T01:28:52.251Z,19.30
2018-07-28T01:31:20.899Z,19.20
2018-07-28T01:33:49.565Z,19.20
2018-07-28T01:36:18.202Z,19.10
2018-07-28T01:38:46.860Z,19.10
2018-07-28T01:41:15.676Z,19.10
2018-07-28T01:43:44.336Z,19.10
2018-07-28T01:46:12.971Z,19.20
2018-07-28T01:48:41.627Z,19.10
2018-07-28T01:51:10.263Z,19.20
2018-07-28T01:53:38.964Z,19.20
2018-07-28T01:56:14.369Z,19.30
2018-07-28T01:58:43.116Z,19.30
2018-07-28T02:01:11.739Z,19.30
2018-07-28T02:03:40.413Z,19.30
2018-07-28T02:06:09.111Z,19.20
2018-07-28T02:08:37.853Z,19.10
2018-07-28T02:11:06.555Z,19.00
2018-07-28T02:13:35.191Z,18.90
2018-07-28T02:16:03.944Z,18.80
2018-07-28T02:21:00.957Z,18.80
2018-07-28T02:23:29.642Z,18.80
2018-07-28T02:25:58.294Z,18.70
2018-07-28T02:28:26.926Z,18.60
2018-07-28T02:30:55.672Z,18.50
2018-07-28T02:33:24.295Z,18.40
2018-07-28T02:35:53.268Z,18.30
2018-07-28T02:38:21.967Z,18.10
2018-07-28T02:40:50.672Z,18.00
2018-07-28T02:43:19.367Z,17.90
2018-07-28T02:45:48.141Z,17.80
2018-07-28T02:48:16.797Z,17.90
2018-07-28T02:50:45.436Z,17.90
2018-07-28T02:53:14.133Z,17.70
2018-07-28T02:55:42.794Z,17.80
2018-07-28T02:58:11.489Z,17.80
2018-07-28T03:00:40.174Z,17.80
2018-07-28T03:03:08.902Z,17.80
2018-07-28T03:05:37.707Z,17.80
2018-07-28T03:08:07.213Z,17.80
2018-07-28T03:10:35.886Z,17.80
2018-07-28T03:13:04.666Z,17.80
2018-07-28T03:15:37.053Z,17.70
2018-07-28T03:18:07.596Z,17.60
2018-07-28T03:20:36.293Z,17.50
2018-07-28T03:23:05.627Z,17.70
2018-07-28T03:25:34.283Z,17.80
2018-07-28T03:28:02.984Z,18.00
2018-07-28T03:30:31.635Z,18.20
2018-07-28T03:33:00.337Z,18.30
2018-07-28T03:35:28.973Z,18.10
2018-07-28T03:37:57.619Z,18.10
2018-07-28T03:40:26.314Z,18.10
2018-07-28T03:42:55.009Z,18.20
2018-07-28T03:45:23.692Z,18.20
2018-07-28T03:47:52.329Z,18.10
2018-07-28T03:50:21.078Z,18.00
2018-07-28T03:52:49.737Z,18.00
2018-07-28T03:55:18.418Z,18.30
2018-07-28T03:57:47.089Z,18.40
2018-07-28T04:00:15.812Z,18.50
2018-07-28T04:02:44.439Z,18.50
2018-07-28T04:05:13.134Z,18.50
2018-07-28T04:07:41.757Z,18.50
2018-07-28T04:10:10.997Z,18.60
2018-07-28T04:12:40.483Z,18.80
2018-07-28T04:15:11.860Z,18.80
2018-07-28T04:17:44.763Z,18.80
2018-07-28T04:20:13.834Z,18.90
2018-07-28T04:22:42.569Z,18.80
2018-07-28T04:25:11.500Z,18.90
2018-07-28T04:27:40.475Z,18.90
2018-07-28T04:30:09.343Z,18.80
2018-07-28T04:32:38.474Z,19.00
2018-07-28T04:35:07.423Z,19.00
2018-07-28T04:37:36.947Z,19.10
2018-07-28T04:40:06.322Z,19.20
2018-07-28T04:42:35.043Z,19.10
2018-07-28T04:47:32.147Z,19.00
2018-07-28T04:50:00.862Z,19.10
2018-07-28T04:52:29.531Z,19.10
2018-07-28T04:54:58.262Z,19.00
2018-07-28T04:57:27.201Z,19.10
2018-07-28T04:59:56.354Z,19.10
2018-07-28T05:02:26.815Z,19.10
2018-07-28T05:04:56.367Z,19.20
2018-07-28T05:07:25.591Z,19.40
2018-07-28T05:09:54.798Z,19.50
2018-07-28T05:12:23.909Z,19.60
2018-07-28T05:14:52.608Z,19.70
2018-07-28T05:17:21.548Z,19.80
2018-07-28T05:19:50.283Z,19.90
2018-07-28T05:22:18.958Z,20.10
2018-07-28T05:24:47.677Z,20.50
2018-07-28T05:27:16.330Z,21.10
2018-07-28T05:29:45.032Z,21.90
2018-07-28T05:32:13.705Z,22.70
2018-07-28T05:34:42.403Z,23.40
2018-07-28T05:37:11.071Z,24.00
2018-07-28T05:39:39.751Z,24.60
2018-07-28T05:42:08.652Z,25.10
2018-07-28T05:44:37.329Z,25.30
2018-07-28T05:47:06.181Z,25.90
2018-07-28T05:49:34.821Z,26.30
2018-07-28T05:52:03.497Z,26.50
2018-07-28T05:54:32.195Z,27.00
2018-07-28T05:57:00.879Z,27.20
2018-07-28T05:59:29.564Z,27.40
2018-07-28T06:01:58.189Z,27.20
2018-07-28T06:04:26.857Z,27.50
2018-07-28T06:06:55.686Z,27.70
2018-07-28T06:09:24.580Z,28.20
2018-07-28T06:11:53.243Z,27.90
2018-07-28T06:14:21.915Z,27.70
2018-07-28T06:16:50.628Z,27.80
2018-07-28T06:19:19.265Z,27.80
2018-07-28T06:21:47.916Z,27.60
2018-07-28T06:24:16.536Z,28.40
2018-07-28T06:26:45.262Z,28.90
2018-07-28T06:29:13.875Z,29.30
2018-07-28T06:31:42.545Z,29.50
2018-07-28T06:34:11.221Z,29.10
2018-07-28T06:36:39.859Z,28.60
2018-07-28T06:39:12.417Z,28.40
2018-07-28T06:41:41.133Z,27.80
2018-07-28T06:44:09.826Z,27.20
2018-07-28T06:46:38.999Z,26.70
2018-07-28T06:49:08.432Z,26.50
2018-07-28T06:51:37.131Z,26.20
2018-07-28T06:54:05.892Z,25.70
2018-07-28T06:56:34.610Z,25.40
2018-07-28T06:59:03.335Z,25.10
2018-07-28T07:01:31.976Z,25.00
2018-07-28T07:04:00.673Z,24.80
2018-07-28T07:08:57.746Z,24.60
2018-07-28T07:13:54.997Z,24.70
2018-07-28T07:16:23.625Z,24.80
2018-07-28T07:18:52.247Z,24.80
2018-07-28T07:21:20.987Z,24.80
2018-07-28T07:23:49.611Z,24.80
2018-07-28T07:26:18.279Z,24.90
2018-07-28T07:28:46.939Z,24.90
2018-07-28T07:33:44.062Z,25.00
2018-07-28T07:36:12.772Z,24.90
2018-07-28T07:38:41.466Z,24.70
2018-07-28T07:41:10.185Z,24.70
2018-07-28T07:43:38.838Z,24.60
2018-07-28T07:46:07.595Z,24.50
2018-07-28T07:48:36.574Z,24.40
2018-07-28T07:51:05.250Z,24.30
2018-07-28T07:53:34.002Z,24.30
2018-07-28T07:56:02.704Z,24.30
2018-07-28T07:58:31.342Z,24.20
2018-07-28T08:01:00.041Z,24.20
2018-07-28T08:03:28.731Z,24.10
2018-07-28T08:05:57.461Z,24.00
2018-07-28T08:08:26.136Z,23.90
2018-07-28T08:10:54.805Z,23.90
2018-07-28T08:13:23.489Z,23.80
2018-07-28T08:15:52.110Z,23.80
2018-07-28T08:18:20.734Z,23.70
2018-07-28T08:20:49.413Z,23.50
2018-07-28T08:23:18.145Z,23.50
2018-07-28T08:25:46.785Z,23.50
2018-07-28T08:28:15.495Z,23.60
2018-07-28T08:30:44.145Z,23.60
2018-07-28T08:33:12.848Z,23.60
2018-07-28T08:35:41.548Z,23.60
2018-07-28T08:40:38.588Z,23.90
2018-07-28T08:43:07.436Z,24.10
2018-07-28T08:45:36.079Z,24.20
2018-07-28T08:48:04.778Z,24.40
2018-07-28T08:53:01.766Z,24.60
2018-07-28T08:55:30.455Z,24.70
2018-07-28T08:57:59.234Z,24.80
2018-07-28T09:00:27.887Z,24.80
2018-07-28T09:02:56.766Z,24.70
2018-07-28T09:05:25.396Z,24.60
2018-07-28T09:07:54.099Z,24.50
2018-07-28T09:10:23.667Z,24.50
2018-07-28T09:12:52.360Z,24.50
2018-07-28T09:15:21.012Z,24.40
2018-07-28T09:17:49.732Z,24.30
2018-07-28T09:22:46.796Z,24.30
2018-07-28T09:25:15.516Z,24.30
2018-07-28T09:27:44.158Z,24.40
2018-07-28T09:30:12.890Z,24.50
2018-07-28T09:32:41.533Z,24.60
2018-07-28T09:35:10.233Z,24.60
2018-07-28T09:37:38.950Z,24.60
2018-07-28T09:40:07.645Z,24.40
2018-07-28T09:42:36.320Z,24.30
2018-07-28T09:45:05.934Z,24.30
2018-07-28T09:47:34.597Z,24.30
2018-07-28T09:50:03.397Z,24.30
2018-07-28T09:52:32.046Z,24.30
2018-07-28T09:57:29.052Z,24.30
2018-07-28T09:59:57.763Z,24.10
2018-07-28T10:02:26.409Z,24.10
2018-07-28T10:04:55.088Z,24.40
2018-07-28T10:07:23.831Z,24.70
2018-07-28T10:09:52.484Z,24.90
2018-07-28T10:12:21.150Z,25.10
2018-07-28T10:14:49.916Z,25.10
2018-07-28T10:17:18.561Z,25.10
2018-07-28T10:19:47.196Z,25.00
2018-07-28T10:22:15.864Z,25.10
2018-07-28T10:24:44.596Z,25.10
2018-07-28T10:27:13.227Z,25.10
2018-07-28T10:29:41.890Z,25.20
2018-07-28T10:32:10.674Z,25.40
2018-07-28T10:34:39.405Z,25.50
2018-07-28T10:39:36.358Z,25.50
2018-07-28T10:42:05.036Z,25.50
2018-07-28T10:47:02.031Z,25.80
2018-07-28T10:49:30.726Z,25.90
2018-07-28T10:51:59.485Z,26.10
2018-07-28T10:54:28.131Z,26.20
2018-07-28T10:56:56.812Z,26.60
2018-07-28T10:59:25.540Z,26.80
2018-07-28T11:01:54.267Z,26.80
2018-07-28T11:04:22.972Z,26.70
2018-07-28T11:06:51.634Z,26.80
2018-07-28T11:09:20.324Z,26.50
2018-07-28T11:11:49.020Z,26.60
2018-07-28T11:14:17.680Z,26.90
2018-07-28T11:16:46.406Z,27.30
2018-07-28T11:19:15.064Z,27.60
2018-07-28T11:21:43.785Z,28.30
2018-07-28T11:24:12.529Z,28.70
2018-07-28T11:26:41.228Z,28.40
2018-07-28T11:29:09.930Z,28.20
2018-07-28T11:31:49.737Z,27.90
2018-07-28T11:34:29.457Z,27.90
2018-07-28T11:37:09.394Z,28.00
2018-07-28T11:39:49.206Z,27.70
2018-07-28T11:42:29.056Z,27.80
2018-07-28T11:45:03.444Z,28.00
2018-07-28T11:47:32.114Z,28.10
2018-07-28T11:52:29.254Z,28.40
2018-07-28T11:54:57.905Z,28.60
2018-07-28T11:57:26.622Z,28.70
2018-07-28T11:59:55.508Z,29.00
2018-07-28T12:02:24.220Z,28.90
2018-07-28T12:04:52.944Z,28.70
2018-07-28T12:07:21.632Z,28.50
2018-07-28T12:09:50.438Z,28.50
2018-07-28T12:12:19.174Z,28.80
2018-07-28T12:14:47.894Z,28.70
2018-07-28T12:17:16.584Z,28.60
2018-07-28T12:19:45.286Z,28.40
2018-07-28T12:22:13.951Z,28.60
2018-07-28T12:24:42.640Z,28.70
2018-07-28T12:27:11.337Z,28.50
2018-07-28T12:29:39.982Z,28.60
2018-07-28T12:32:08.899Z,28.50
2018-07-28T12:34:37.670Z,28.40
2018-07-28T12:37:06.339Z,28.50
2018-07-28T12:39:35.026Z,28.30
2018-07-28T12:44:32.040Z,28.60
2018-07-28T12:47:00.788Z,28.80
2018-07-28T12:49:29.737Z,28.90
2018-07-28T12:51:58.415Z,28.90
2018-07-28T12:54:27.038Z,29.50
2018-07-28T12:59:24.077Z,29.20
2018-07-28T13:01:52.760Z,29.00
2018-07-28T13:04:21.446Z,29.40
2018-07-28T13:06:50.101Z,29.50
2018-07-28T13:09:18.807Z,29.60
2018-07-28T13:11:47.460Z,29.50
2018-07-28T13:14:16.189Z,29.30
2018-07-28T13:16:44.893Z,29.60
2018-07-28T13:19:13.630Z,29.70
2018-07-28T13:24:17.194Z,29.60
2018-07-28T13:26:45.878Z,29.60
2018-07-28T13:29:14.545Z,29.60
2018-07-28T13:31:43.211Z,29.80
2018-07-28T13:34:11.926Z,30.20
2018-07-28T13:36:40.618Z,30.20
2018-07-28T13:39:09.390Z,30.30
2018-07-28T13:41:38.137Z,30.20
2018-07-28T13:44:06.879Z,30.10
2018-07-28T13:46:35.596Z,29.80
2018-07-28T13:49:04.535Z,29.60
2018-07-28T13:51:33.194Z,29.50
2018-07-28T13:54:01.856Z,29.30
2018-07-28T13:56:31.322Z,29.30
2018-07-28T13:58:59.990Z,29.20
2018-07-28T14:01:28.655Z,29.10
2018-07-28T14:03:57.716Z,29.20
2018-07-28T14:06:26.370Z,29.30
2018-07-28T14:08:55.090Z,29.20
2018-07-28T14:11:23.787Z,29.00
2018-07-28T14:13:53.447Z,28.90
2018-07-28T14:16:22.142Z,29.10
2018-07-28T14:18:51.053Z,29.20
2018-07-28T14:21:20.109Z,29.40
2018-07-28T14:23:49.874Z,29.70
2018-07-28T14:26:19.484Z,29.80
2018-07-28T14:28:48.157Z,29.80
2018-07-28T14:31:16.834Z,29.80
2018-07-28T14:33:46.227Z,29.70
2018-07-28T14:36:14.969Z,29.80
2018-07-28T14:38:43.649Z,30.00
2018-07-28T14:41:12.422Z,30.10
2018-07-28T14:43:41.077Z,30.30
2018-07-28T14:46:10.969Z,30.50
2018-07-28T14:48:39.633Z,30.70
2018-07-28T14:51:09.345Z,30.50
2018-07-28T14:53:38.670Z,30.40
2018-07-28T14:56:07.394Z,30.40
2018-07-28T14:58:36.082Z,30.60
2018-07-28T15:01:04.793Z,30.60
2018-07-28T15:03:34.017Z,30.40
2018-07-28T15:06:02.667Z,30.00
2018-07-28T15:08:32.042Z,29.80
2018-07-28T15:11:00.663Z,29.50
2018-07-28T15:13:29.410Z,29.40
